EDLP/PAD METAR and TAF weather

Enter ICAO airport designator
Station Type Date Time Source
EDLP METAR 2019/04/24 22:20 UTC NOAA

EDLP 242220Z 14003KT 090V200 CAVOK 11/06 Q1006


Station Type Date Time Source
EDLP Decoded METAR 2019/04/24 22:20 UTC NOAA

Paderborn / Lippstadt, Germany (EDLP) 51-37N 008-37E
Apr 24, 2019 - 06:20 PM EDT / 2019.04.24 2220 UTC
Wind: from the SE (140 degrees) at 3 MPH (3 KT) (direction variable):0
Visibility: greater than 7 mile(s):0
Temperature: 51 F (11 C)
Dew Point: 42 F (6 C)
Relative Humidity: 71%
Pressure (altimeter): 29.71 in. Hg (1006 hPa)
ob: EDLP 242220Z 14003KT 090V200 CAVOK 11/06 Q1006
cycle: 22

Station Type Date Time Source
EDLP TAF 2019/04/24 19:10 UTC NOAA

TAF
AMD EDLP 241958Z 2419/2518 13007KT CAVOK PROB30
TEMPO 2419/2422 20025G45KT TSRA BKN020CB
BECMG 2421/2424 22009KT PROB40
TEMPO 2422/2424 RA
BECMG 2500/2502 16009KT
BECMG 2515/2518 09004KT

Example: see airport list